sensor_id;sensor_type;location;lat;lon;timestamp;P1;P2;P0
71794;PMS7003;59641;45.188;5.712;2023-04-10T00:01:14;5.00;4.00;4.00
71794;PMS7003;59641;45.188;5.712;2023-04-10T00:03:40;5.00;5.00;3.75
71794;PMS7003;59641;45.188;5.712;2023-04-10T00:06:05;5.50;5.50;4.50
71794;PMS7003;59641;45.188;5.712;2023-04-10T00:08:31;5.40;5.40;4.40
71794;PMS7003;59641;45.188;5.712;2023-04-10T00:10:56;7.25;4.75;4.00
71794;PMS7003;59641;45.188;5.712;2023-04-10T00:13:22;6.00;6.00;5.00
71794;PMS7003;59641;45.188;5.712;2023-04-10T00:15:47;6.25;6.00;4.25
71794;PMS7003;59641;45.188;5.712;2023-04-10T00:18:14;5.75;5.75;3.75
71794;PMS7003;59641;45.188;5.712;2023-04-10T00:20:39;6.00;6.00;4.50
71794;PMS7003;59641;45.188;5.712;2023-04-10T00:23:05;4.75;4.75;4.50
71794;PMS7003;59641;45.188;5.712;2023-04-10T00:25:30;9.00;9.00;6.00
71794;PMS7003;59641;45.188;5.712;2023-04-10T00:27:55;7.25;7.25;6.00
71794;PMS7003;59641;45.188;5.712;2023-04-10T00:30:21;8.00;8.00;6.00
71794;PMS7003;59641;45.188;5.712;2023-04-10T00:32:46;5.25;5.25;4.50
71794;PMS7003;59641;45.188;5.712;2023-04-10T00:35:11;7.25;5.75;5.25
71794;PMS7003;59641;45.188;5.712;2023-04-10T00:37:37;7.00;6.25;5.50
71794;PMS7003;59641;45.188;5.712;2023-04-10T00:40:03;5.50;4.75;4.25
71794;PMS7003;59641;45.188;5.712;2023-04-10T00:42:30;8.25;6.75;6.25
71794;PMS7003;59641;45.188;5.712;2023-04-10T00:44:55;9.75;6.75;5.00
71794;PMS7003;59641;45.188;5.712;2023-04-10T00:47:21;6.00;4.75;3.75
71794;PMS7003;59641;45.188;5.712;2023-04-10T00:49:46;4.25;4.25;4.00
71794;PMS7003;59641;45.188;5.712;2023-04-10T00:52:12;7.75;7.00;5.25
71794;PMS7003;59641;45.188;5.712;2023-04-10T00:54:37;4.00;4.00;3.25
71794;PMS7003;59641;45.188;5.712;2023-04-10T00:57:04;6.50;6.50;5.00
71794;PMS7003;59641;45.188;5.712;2023-04-10T00:59:29;7.50;6.00;5.25
71794;PMS7003;59641;45.188;5.712;2023-04-10T01:01:55;7.00;6.25;5.00
71794;PMS7003;59641;45.188;5.712;2023-04-10T01:04:21;7.75;7.00;6.00
71794;PMS7003;59641;45.188;5.712;2023-04-10T01:20:36;6.25;5.25;4.25
71794;PMS7003;59641;45.188;5.712;2023-04-10T01:23:18;4.00;4.00;3.25
71794;PMS7003;59641;45.188;5.712;2023-04-10T01:26:08;6.20;4.60;4.00
71794;PMS7003;59641;45.188;5.712;2023-04-10T01:31:18;7.25;4.50;4.25
71794;PMS7003;59641;45.188;5.712;2023-04-10T01:33:52;4.75;4.50;3.50
71794;PMS7003;59641;45.188;5.712;2023-04-10T01:36:26;6.00;5.40;4.20
71794;PMS7003;59641;45.188;5.712;2023-04-10T01:38:55;5.75;5.75;5.00
71794;PMS7003;59641;45.188;5.712;2023-04-10T01:41:22;5.50;4.75;4.25
71794;PMS7003;59641;45.188;5.712;2023-04-10T01:43:50;3.50;3.50;3.25
71794;PMS7003;59641;45.188;5.712;2023-04-10T01:46:18;3.40;3.20;3.00
71794;PMS7003;59641;45.188;5.712;2023-04-10T01:48:45;5.50;5.50;4.25
71794;PMS7003;59641;45.188;5.712;2023-04-10T01:51:11;7.25;7.25;5.00
71794;PMS7003;59641;45.188;5.712;2023-04-10T01:53:38;5.25;5.25;5.25
71794;PMS7003;59641;45.188;5.712;2023-04-10T01:56:06;5.75;5.50;4.50
71794;PMS7003;59641;45.188;5.712;2023-04-10T01:58:33;6.25;5.25;3.50
71794;PMS7003;59641;45.188;5.712;2023-04-10T02:00:59;5.75;5.75;4.00
71794;PMS7003;59641;45.188;5.712;2023-04-10T02:03:25;5.75;5.00;4.00
71794;PMS7003;59641;45.188;5.712;2023-04-10T02:06:07;5.00;5.00;4.25
71794;PMS7003;59641;45.188;5.712;2023-04-10T02:08:41;4.75;4.75;4.00
71794;PMS7003;59641;45.188;5.712;2023-04-10T02:11:16;6.00;5.50;5.00
71794;PMS7003;59641;45.188;5.712;2023-04-10T02:13:53;6.00;6.00;5.00
71794;PMS7003;59641;45.188;5.712;2023-04-10T02:16:23;4.00;4.00;2.80
71794;PMS7003;59641;45.188;5.712;2023-04-10T02:18:49;5.75;5.75;5.00
71794;PMS7003;59641;45.188;5.712;2023-04-10T02:21:15;5.25;5.25;5.00
71794;PMS7003;59641;45.188;5.712;2023-04-10T02:23:41;4.75;4.75;3.75
71794;PMS7003;59641;45.188;5.712;2023-04-10T02:26:07;7.00;6.25;4.25
71794;PMS7003;59641;45.188;5.712;2023-04-10T02:28:33;7.00;7.00;5.50
71794;PMS7003;59641;45.188;5.712;2023-04-10T02:31:02;5.75;5.75;4.25
71794;PMS7003;59641;45.188;5.712;2023-04-10T02:33:27;7.00;5.00;4.75
71794;PMS7003;59641;45.188;5.712;2023-04-10T02:35:53;5.00;4.25;4.00
71794;PMS7003;59641;45.188;5.712;2023-04-10T02:38:18;6.75;5.25;4.25
71794;PMS7003;59641;45.188;5.712;2023-04-10T02:40:43;6.75;5.50;5.00
71794;PMS7003;59641;45.188;5.712;2023-04-10T02:43:10;4.50;4.50;4.00
71794;PMS7003;59641;45.188;5.712;2023-04-10T02:45:35;4.50;4.50;4.25
71794;PMS7003;59641;45.188;5.712;2023-04-10T02:48:00;5.25;5.25;5.00
71794;PMS7003;59641;45.188;5.712;2023-04-10T02:50:26;4.75;4.75;4.00
71794;PMS7003;59641;45.188;5.712;2023-04-10T02:52:53;7.00;7.00;5.00
71794;PMS7003;59641;45.188;5.712;2023-04-10T02:55:20;8.00;7.00;6.00
71794;PMS7003;59641;45.188;5.712;2023-04-10T02:57:45;6.00;6.00;5.00
71794;PMS7003;59641;45.188;5.712;2023-04-10T03:00:11;4.75;4.75;4.00
71794;PMS7003;59641;45.188;5.712;2023-04-10T03:02:37;3.25;3.00;3.00
71794;PMS7003;59641;45.188;5.712;2023-04-10T03:05:02;5.25;5.25;4.00
71794;PMS7003;59641;45.188;5.712;2023-04-10T03:07:28;5.00;5.00;4.75
71794;PMS7003;59641;45.188;5.712;2023-04-10T03:09:53;5.50;3.50;3.50
71794;PMS7003;59641;45.188;5.712;2023-04-10T03:12:18;4.00;4.00;3.00
71794;PMS7003;59641;45.188;5.712;2023-04-10T03:14:44;5.50;5.00;5.00
71794;PMS7003;59641;45.188;5.712;2023-04-10T03:17:09;3.50;3.50;3.00
71794;PMS7003;59641;45.188;5.712;2023-04-10T03:19:36;4.50;4.50;4.00
71794;PMS7003;59641;45.188;5.712;2023-04-10T03:22:01;7.00;7.00;5.00
71794;PMS7003;59641;45.188;5.712;2023-04-10T03:24:27;5.60;5.20;4.80
71794;PMS7003;59641;45.188;5.712;2023-04-10T03:26:53;5.00;5.00;4.25
71794;PMS7003;59641;45.188;5.712;2023-04-10T03:29:18;5.75;5.00;4.25
71794;PMS7003;59641;45.188;5.712;2023-04-10T03:31:43;6.00;6.00;5.00
71794;PMS7003;59641;45.188;5.712;2023-04-10T03:34:09;6.00;6.00;4.60
71794;PMS7003;59641;45.188;5.712;2023-04-10T03:36:35;4.50;4.50;3.75
71794;PMS7003;59641;45.188;5.712;2023-04-10T03:39:01;5.75;5.75;4.50
71794;PMS7003;59641;45.188;5.712;2023-04-10T03:41:26;4.50;4.50;3.50
71794;PMS7003;59641;45.188;5.712;2023-04-10T03:43:51;5.75;5.75;4.50
71794;PMS7003;59641;45.188;5.712;2023-04-10T03:46:17;6.00;6.00;4.00
71794;PMS7003;59641;45.188;5.712;2023-04-10T03:48:42;7.00;5.00;4.00
71794;PMS7003;59641;45.188;5.712;2023-04-10T03:51:07;7.00;6.00;5.00
71794;PMS7003;59641;45.188;5.712;2023-04-10T03:53:33;7.00;7.00;5.00
71794;PMS7003;59641;45.188;5.712;2023-04-10T03:56:00;5.20;4.80;3.80
71794;PMS7003;59641;45.188;5.712;2023-04-10T03:58:26;5.00;5.00;4.00
71794;PMS7003;59641;45.188;5.712;2023-04-10T04:00:52;5.75;5.00;4.75
71794;PMS7003;59641;45.188;5.712;2023-04-10T04:03:17;5.50;5.50;4.75
71794;PMS7003;59641;45.188;5.712;2023-04-10T04:05:43;6.25;5.50;3.75
71794;PMS7003;59641;45.188;5.712;2023-04-10T04:08:08;5.75;4.75;3.75
71794;PMS7003;59641;45.188;5.712;2023-04-10T04:10:33;5.75;5.75;5.00
71794;PMS7003;59641;45.188;5.712;2023-04-10T04:12:59;7.00;6.25;5.25
71794;PMS7003;59641;45.188;5.712;2023-04-10T04:15:24;5.00;4.75;4.00
71794;PMS7003;59641;45.188;5.712;2023-04-10T04:17:49;6.50;6.00;4.75
71794;PMS7003;59641;45.188;5.712;2023-04-10T04:20:15;6.25;6.25;5.25
71794;PMS7003;59641;45.188;5.712;2023-04-10T04:22:40;7.25;6.00;4.50
71794;PMS7003;59641;45.188;5.712;2023-04-10T04:25:06;4.50;4.50;3.75
71794;PMS7003;59641;45.188;5.712;2023-04-10T04:27:34;8.25;5.00;5.00
71794;PMS7003;59641;45.188;5.712;2023-04-10T04:30:00;4.00;4.00;3.75
71794;PMS7003;59641;45.188;5.712;2023-04-10T04:32:26;4.20;4.20;3.40
71794;PMS7003;59641;45.188;5.712;2023-04-10T04:34:52;5.75;5.25;3.75
71794;PMS7003;59641;45.188;5.712;2023-04-10T04:37:17;9.50;7.50;5.00
71794;PMS7003;59641;45.188;5.712;2023-04-10T04:39:42;5.50;5.50;4.00
71794;PMS7003;59641;45.188;5.712;2023-04-10T04:42:08;3.75;3.75;3.50
71794;PMS7003;59641;45.188;5.712;2023-04-10T04:44:33;7.75;4.75;4.00
71794;PMS7003;59641;45.188;5.712;2023-04-10T04:46:59;6.75;5.75;4.75
71794;PMS7003;59641;45.188;5.712;2023-04-10T04:49:25;4.00;3.50;3.25
71794;PMS7003;59641;45.188;5.712;2023-04-10T04:51:50;6.00;5.75;5.00
71794;PMS7003;59641;45.188;5.712;2023-04-10T04:54:15;6.50;4.75;3.75
71794;PMS7003;59641;45.188;5.712;2023-04-10T04:56:41;5.25;5.25;3.75
71794;PMS7003;59641;45.188;5.712;2023-04-10T04:59:06;3.75;3.75;3.75
71794;PMS7003;59641;45.188;5.712;2023-04-10T05:01:31;3.75;3.75;3.75
71794;PMS7003;59641;45.188;5.712;2023-04-10T05:03:57;5.00;4.75;3.75
71794;PMS7003;59641;45.188;5.712;2023-04-10T05:06:22;5.25;5.25;3.75
71794;PMS7003;59641;45.188;5.712;2023-04-10T05:08:48;6.00;4.75;4.50
71794;PMS7003;59641;45.188;5.712;2023-04-10T05:11:13;4.00;4.00;3.50
71794;PMS7003;59641;45.188;5.712;2023-04-10T05:13:38;7.25;6.25;5.25
71794;PMS7003;59641;45.188;5.712;2023-04-10T05:16:04;6.50;5.75;4.75
71794;PMS7003;59641;45.188;5.712;2023-04-10T05:18:30;4.75;4.75;4.00
71794;PMS7003;59641;45.188;5.712;2023-04-10T05:20:55;6.00;6.00;4.75
71794;PMS7003;59641;45.188;5.712;2023-04-10T05:23:20;5.00;5.00;4.00
71794;PMS7003;59641;45.188;5.712;2023-04-10T05:25:46;5.00;4.75;4.00
71794;PMS7003;59641;45.188;5.712;2023-04-10T05:28:11;5.75;5.75;4.75
71794;PMS7003;59641;45.188;5.712;2023-04-10T05:30:36;6.00;5.50;4.00
71794;PMS7003;59641;45.188;5.712;2023-04-10T05:33:02;6.25;5.75;4.75
71794;PMS7003;59641;45.188;5.712;2023-04-10T05:35:27;6.50;5.75;4.75
71794;PMS7003;59641;45.188;5.712;2023-04-10T05:37:53;7.25;6.00;5.25
71794;PMS7003;59641;45.188;5.712;2023-04-10T05:40:18;5.00;5.00;4.00
71794;PMS7003;59641;45.188;5.712;2023-04-10T05:42:44;7.00;7.00;4.75
71794;PMS7003;59641;45.188;5.712;2023-04-10T05:45:10;6.25;6.25;4.75
71794;PMS7003;59641;45.188;5.712;2023-04-10T05:47:35;7.00;6.00;4.25
71794;PMS7003;59641;45.188;5.712;2023-04-10T05:50:01;8.00;6.75;6.00
71794;PMS7003;59641;45.188;5.712;2023-04-10T05:52:26;6.50;5.25;4.50
71794;PMS7003;59641;45.188;5.712;2023-04-10T05:54:52;5.50;5.50;4.50
71794;PMS7003;59641;45.188;5.712;2023-04-10T05:57:17;4.75;4.75;4.50
71794;PMS7003;59641;45.188;5.712;2023-04-10T05:59:42;5.50;5.50;4.50
71794;PMS7003;59641;45.188;5.712;2023-04-10T06:02:08;4.50;4.50;4.00
71794;PMS7003;59641;45.188;5.712;2023-04-10T06:04:33;7.00;6.00;4.25
71794;PMS7003;59641;45.188;5.712;2023-04-10T06:06:58;2.25;2.25;1.50
71794;PMS7003;59641;45.188;5.712;2023-04-10T06:09:25;3.50;3.50;3.50
71794;PMS7003;59641;45.188;5.712;2023-04-10T06:11:50;5.00;5.00;4.00
71794;PMS7003;59641;45.188;5.712;2023-04-10T06:14:17;5.00;5.00;5.00
71794;PMS7003;59641;45.188;5.712;2023-04-10T06:16:43;6.00;6.00;5.00
71794;PMS7003;59641;45.188;5.712;2023-04-10T06:19:09;7.25;7.00;6.00
71794;PMS7003;59641;45.188;5.712;2023-04-10T06:21:35;5.00;5.00;4.25
71794;PMS7003;59641;45.188;5.712;2023-04-10T06:24:00;6.50;5.75;4.75
71794;PMS7003;59641;45.188;5.712;2023-04-10T06:26:26;5.00;5.00;5.00
71794;PMS7003;59641;45.188;5.712;2023-04-10T06:28:51;6.75;6.50;5.75
71794;PMS7003;59641;45.188;5.712;2023-04-10T06:31:18;6.25;6.25;3.75
71794;PMS7003;59641;45.188;5.712;2023-04-10T06:33:46;9.50;8.50;5.50
71794;PMS7003;59641;45.188;5.712;2023-04-10T06:36:12;5.00;5.00;4.25
71794;PMS7003;59641;45.188;5.712;2023-04-10T06:38:37;6.50;6.00;5.50
71794;PMS7003;59641;45.188;5.712;2023-04-10T06:41:03;7.50;7.00;6.00
71794;PMS7003;59641;45.188;5.712;2023-04-10T06:43:31;5.75;4.50;3.75
71794;PMS7003;59641;45.188;5.712;2023-04-10T06:46:00;6.75;6.75;5.75
71794;PMS7003;59641;45.188;5.712;2023-04-10T06:48:28;6.50;6.50;4.75
71794;PMS7003;59641;45.188;5.712;2023-04-10T06:50:53;5.50;5.50;4.00
71794;PMS7003;59641;45.188;5.712;2023-04-10T06:53:19;6.75;6.75;4.75
71794;PMS7003;59641;45.188;5.712;2023-04-10T06:55:44;6.50;5.75;5.25
71794;PMS7003;59641;45.188;5.712;2023-04-10T06:58:10;6.75;6.25;5.00
71794;PMS7003;59641;45.188;5.712;2023-04-10T07:00:36;7.00;7.00;5.25
71794;PMS7003;59641;45.188;5.712;2023-04-10T07:03:01;7.00;7.00;5.50
71794;PMS7003;59641;45.188;5.712;2023-04-10T07:05:26;7.50;6.75;5.75
71794;PMS7003;59641;45.188;5.712;2023-04-10T07:07:52;6.00;6.00;4.75
71794;PMS7003;59641;45.188;5.712;2023-04-10T07:10:17;5.50;5.50;4.25
71794;PMS7003;59641;45.188;5.712;2023-04-10T07:12:42;10.75;8.25;6.50
71794;PMS7003;59641;45.188;5.712;2023-04-10T07:15:08;6.00;6.00;5.00
71794;PMS7003;59641;45.188;5.712;2023-04-10T07:17:33;10.75;9.75;7.00
71794;PMS7003;59641;45.188;5.712;2023-04-10T07:19:59;11.00;10.00;7.00
71794;PMS7003;59641;45.188;5.712;2023-04-10T07:22:24;9.75;9.75;7.75
71794;PMS7003;59641;45.188;5.712;2023-04-10T07:24:50;9.75;9.25;6.75
71794;PMS7003;59641;45.188;5.712;2023-04-10T07:27:16;9.00;9.00;7.50
71794;PMS7003;59641;45.188;5.712;2023-04-10T07:29:42;9.50;9.00;7.75
71794;PMS7003;59641;45.188;5.712;2023-04-10T07:32:07;10.50;9.75;7.75
71794;PMS7003;59641;45.188;5.712;2023-04-10T07:34:32;10.00;8.50;7.00
71794;PMS7003;59641;45.188;5.712;2023-04-10T07:36:58;9.75;9.75;7.75
71794;PMS7003;59641;45.188;5.712;2023-04-10T07:39:23;9.75;9.75;7.75
71794;PMS7003;59641;45.188;5.712;2023-04-10T07:41:49;8.75;8.75;6.75
71794;PMS7003;59641;45.188;5.712;2023-04-10T07:44:14;7.00;7.00;6.50
71794;PMS7003;59641;45.188;5.712;2023-04-10T07:46:39;8.50;7.75;7.00
71794;PMS7003;59641;45.188;5.712;2023-04-10T07:49:05;9.00;9.00;8.00
71794;PMS7003;59641;45.188;5.712;2023-04-10T07:51:31;8.25;8.00;7.00
71794;PMS7003;59641;45.188;5.712;2023-04-10T07:53:56;8.75;8.75;6.75
71794;PMS7003;59641;45.188;5.712;2023-04-10T07:56:22;9.50;9.50;8.25
71794;PMS7003;59641;45.188;5.712;2023-04-10T07:58:47;7.25;7.25;6.75
71794;PMS7003;59641;45.188;5.712;2023-04-10T08:01:13;12.50;12.50;7.00
71794;PMS7003;59641;45.188;5.712;2023-04-10T08:03:40;7.00;7.00;6.00
71794;PMS7003;59641;45.188;5.712;2023-04-10T08:06:08;8.25;8.00;5.50
71794;PMS7003;59641;45.188;5.712;2023-04-10T08:08:37;8.25;7.50;6.50
71794;PMS7003;59641;45.188;5.712;2023-04-10T08:11:47;7.00;7.00;5.00
71794;PMS7003;59641;45.188;5.712;2023-04-10T08:13:55;6.25;6.25;6.25
71794;PMS7003;59641;45.188;5.712;2023-04-10T08:16:23;9.50;9.00;6.50
71794;PMS7003;59641;45.188;5.712;2023-04-10T08:18:49;8.00;7.00;7.00
71794;PMS7003;59641;45.188;5.712;2023-04-10T08:21:16;22.25;20.50;14.00
71794;PMS7003;59641;45.188;5.712;2023-04-10T08:23:42;18.75;18.00;12.00
71794;PMS7003;59641;45.188;5.712;2023-04-10T08:26:07;12.00;12.00;9.00
71794;PMS7003;59641;45.188;5.712;2023-04-10T08:28:32;8.75;8.75;7.25
71794;PMS7003;59641;45.188;5.712;2023-04-10T08:30:58;9.75;8.75;7.50
71794;PMS7003;59641;45.188;5.712;2023-04-10T08:33:23;9.50;9.50;7.75
71794;PMS7003;59641;45.188;5.712;2023-04-10T08:35:48;13.75;10.75;8.75
71794;PMS7003;59641;45.188;5.712;2023-04-10T08:38:14;10.50;9.75;8.00
71794;PMS7003;59641;45.188;5.712;2023-04-10T08:40:39;6.25;6.25;5.75
71794;PMS7003;59641;45.188;5.712;2023-04-10T08:43:04;9.00;7.00;6.50
71794;PMS7003;59641;45.188;5.712;2023-04-10T08:45:30;8.50;8.00;6.00
71794;PMS7003;59641;45.188;5.712;2023-04-10T08:47:56;6.00;6.00;5.00
71794;PMS7003;59641;45.188;5.712;2023-04-10T08:50:25;7.25;6.25;5.00
71794;PMS7003;59641;45.188;5.712;2023-04-10T08:52:55;9.50;8.00;6.00
71794;PMS7003;59641;45.188;5.712;2023-04-10T08:55:24;8.80;7.80;5.80
71794;PMS7003;59641;45.188;5.712;2023-04-10T08:57:50;6.20;6.20;4.80
71794;PMS7003;59641;45.188;5.712;2023-04-10T09:00:16;7.00;7.00;5.00
71794;PMS7003;59641;45.188;5.712;2023-04-10T09:02:42;6.25;5.50;4.25
71794;PMS7003;59641;45.188;5.712;2023-04-10T09:05:09;5.25;5.25;5.00
71794;PMS7003;59641;45.188;5.712;2023-04-10T09:07:36;12.00;10.00;8.25
71794;PMS7003;59641;45.188;5.712;2023-04-10T09:10:01;15.50;13.75;8.75
71794;PMS7003;59641;45.188;5.712;2023-04-10T09:12:27;8.25;8.25;7.00
71794;PMS7003;59641;45.188;5.712;2023-04-10T09:14:52;6.75;6.00;4.00
71794;PMS7003;59641;45.188;5.712;2023-04-10T09:17:21;8.60;8.40;4.80
71794;PMS7003;59641;45.188;5.712;2023-04-10T09:19:48;7.50;7.00;5.75
71794;PMS7003;59641;45.188;5.712;2023-04-10T09:22:16;7.00;7.00;5.25
71794;PMS7003;59641;45.188;5.712;2023-04-10T09:24:43;7.80;7.80;6.40
71794;PMS7003;59641;45.188;5.712;2023-04-10T09:27:09;7.50;7.00;4.25
71794;PMS7003;59641;45.188;5.712;2023-04-10T09:29:50;4.75;4.75;3.25
71794;PMS7003;59641;45.188;5.712;2023-04-10T09:35:00;5.20;4.80;4.00
71794;PMS7003;59641;45.188;5.712;2023-04-10T09:37:32;5.00;4.50;4.00
71794;PMS7003;59641;45.188;5.712;2023-04-10T09:39:58;6.25;5.25;3.50
71794;PMS7003;59641;45.188;5.712;2023-04-10T09:42:31;5.00;5.00;3.00
71794;PMS7003;59641;45.188;5.712;2023-04-10T09:44:58;7.60;7.20;5.80
71794;PMS7003;59641;45.188;5.712;2023-04-10T09:47:25;7.00;7.00;5.50
71794;PMS7003;59641;45.188;5.712;2023-04-10T09:49:54;5.00;5.00;4.25
71794;PMS7003;59641;45.188;5.712;2023-04-10T09:54:52;6.20;6.20;5.00
71794;PMS7003;59641;45.188;5.712;2023-04-10T09:57:20;4.25;4.25;3.50
71794;PMS7003;59641;45.188;5.712;2023-04-10T09:59:50;4.00;4.00;3.00
71794;PMS7003;59641;45.188;5.712;2023-04-10T10:02:19;4.25;4.25;3.50
71794;PMS7003;59641;45.188;5.712;2023-04-10T10:04:50;3.40;2.40;1.80
71794;PMS7003;59641;45.188;5.712;2023-04-10T10:07:17;4.40;4.00;3.60
71794;PMS7003;59641;45.188;5.712;2023-04-10T10:09:44;5.00;5.00;4.00
71794;PMS7003;59641;45.188;5.712;2023-04-10T10:12:11;4.00;4.00;4.00
71794;PMS7003;59641;45.188;5.712;2023-04-10T10:14:44;4.00;4.00;3.00
71794;PMS7003;59641;45.188;5.712;2023-04-10T10:17:18;2.80;2.20;2.00
71794;PMS7003;59641;45.188;5.712;2023-04-10T10:19:51;2.60;2.60;2.00
71794;PMS7003;59641;45.188;5.712;2023-04-10T10:22:26;4.50;4.50;3.50
71794;PMS7003;59641;45.188;5.712;2023-04-10T10:24:52;2.80;2.80;2.00
71794;PMS7003;59641;45.188;5.712;2023-04-10T10:27:20;3.60;3.60;3.40
71794;PMS7003;59641;45.188;5.712;2023-04-10T10:29:47;6.25;6.25;4.00
71794;PMS7003;59641;45.188;5.712;2023-04-10T10:32:14;5.75;5.75;4.00
71794;PMS7003;59641;45.188;5.712;2023-04-10T10:34:41;5.00;5.00;4.00
71794;PMS7003;59641;45.188;5.712;2023-04-10T10:37:10;4.00;4.00;3.00
71794;PMS7003;59641;45.188;5.712;2023-04-10T10:45:06;4.00;4.00;3.00
71794;PMS7003;59641;45.188;5.712;2023-04-10T10:47:40;3.00;3.00;3.00
71794;PMS7003;59641;45.188;5.712;2023-04-10T10:50:08;5.75;5.00;3.00
71794;PMS7003;59641;45.188;5.712;2023-04-10T10:55:50;2.60;2.40;1.20
71794;PMS7003;59641;45.188;5.712;2023-04-10T10:57:56;4.00;4.00;3.80
71794;PMS7003;59641;45.188;5.712;2023-04-10T11:00:24;2.40;2.40;2.20
71794;PMS7003;59641;45.188;5.712;2023-04-10T11:08:37;2.80;2.80;2.00
71794;PMS7003;59641;45.188;5.712;2023-04-10T11:16:22;4.00;4.00;3.00
71794;PMS7003;59641;45.188;5.712;2023-04-10T11:19:06;4.20;4.20;2.80
71794;PMS7003;59641;45.188;5.712;2023-04-10T11:21:33;4.00;3.00;3.00
71794;PMS7003;59641;45.188;5.712;2023-04-10T11:31:38;1.00;1.00;1.00
71794;PMS7003;59641;45.188;5.712;2023-04-10T11:34:05;3.00;3.00;1.60
71794;PMS7003;59641;45.188;5.712;2023-04-10T11:36:42;2.20;2.20;2.00
71794;PMS7003;59641;45.188;5.712;2023-04-10T11:39:09;1.40;1.40;1.00
71794;PMS7003;59641;45.188;5.712;2023-04-10T11:41:48;2.80;2.80;2.60
71794;PMS7003;59641;45.188;5.712;2023-04-10T11:46:49;2.00;2.00;1.80
71794;PMS7003;59641;45.188;5.712;2023-04-10T11:49:20;3.80;2.60;2.00
71794;PMS7003;59641;45.188;5.712;2023-04-10T11:51:46;3.20;3.00;2.60
71794;PMS7003;59641;45.188;5.712;2023-04-10T11:54:14;3.50;3.00;1.25
71794;PMS7003;59641;45.188;5.712;2023-04-10T11:56:41;2.40;2.00;1.00
71794;PMS7003;59641;45.188;5.712;2023-04-10T11:59:08;1.80;1.40;1.00
71794;PMS7003;59641;45.188;5.712;2023-04-10T12:01:43;2.00;1.60;1.00
71794;PMS7003;59641;45.188;5.712;2023-04-10T12:04:16;2.00;2.00;2.00
71794;PMS7003;59641;45.188;5.712;2023-04-10T12:06:43;3.60;2.00;1.00
71794;PMS7003;59641;45.188;5.712;2023-04-10T12:09:16;1.60;1.60;1.00
71794;PMS7003;59641;45.188;5.712;2023-04-10T12:14:16;2.00;2.00;1.20
71794;PMS7003;59641;45.188;5.712;2023-04-10T12:16:42;2.40;2.40;2.00
71794;PMS7003;59641;45.188;5.712;2023-04-10T12:19:08;0.20;0.20;0.20
71794;PMS7003;59641;45.188;5.712;2023-04-10T12:21:34;2.00;2.00;1.60
71794;PMS7003;59641;45.188;5.712;2023-04-10T12:24:00;1.20;1.00;0.00
71794;PMS7003;59641;45.188;5.712;2023-04-10T12:26:26;1.75;1.75;1.00
71794;PMS7003;59641;45.188;5.712;2023-04-10T12:28:52;0.00;0.00;0.00
71794;PMS7003;59641;45.188;5.712;2023-04-10T12:31:25;0.40;0.00;0.00
71794;PMS7003;59641;45.188;5.712;2023-04-10T12:33:52;2.40;1.40;0.80
71794;PMS7003;59641;45.188;5.712;2023-04-10T12:36:22;0.00;0.00;0.00
71794;PMS7003;59641;45.188;5.712;2023-04-10T12:38:48;2.00;2.00;0.20
71794;PMS7003;59641;45.188;5.712;2023-04-10T12:41:19;1.00;1.00;0.75
71794;PMS7003;59641;45.188;5.712;2023-04-10T12:43:47;0.20;0.20;0.20
71794;PMS7003;59641;45.188;5.712;2023-04-10T12:46:22;0.80;0.80;0.40
71794;PMS7003;59641;45.188;5.712;2023-04-10T12:48:51;0.00;0.00;0.00
71794;PMS7003;59641;45.188;5.712;2023-04-10T12:51:17;0.00;0.00;0.00
71794;PMS7003;59641;45.188;5.712;2023-04-10T12:53:43;1.00;1.00;0.75
71794;PMS7003;59641;45.188;5.712;2023-04-10T12:56:09;0.80;0.20;0.00
71794;PMS7003;59641;45.188;5.712;2023-04-10T12:58:36;0.40;0.40;0.40
71794;PMS7003;59641;45.188;5.712;2023-04-10T13:01:05;1.00;1.00;1.00
71794;PMS7003;59641;45.188;5.712;2023-04-10T13:03:33;0.20;0.20;0.00
71794;PMS7003;59641;45.188;5.712;2023-04-10T13:06:00;2.00;2.00;1.40
71794;PMS7003;59641;45.188;5.712;2023-04-10T13:08:26;2.60;2.60;1.60
71794;PMS7003;59641;45.188;5.712;2023-04-10T13:10:51;1.00;1.00;1.00
71794;PMS7003;59641;45.188;5.712;2023-04-10T13:13:17;1.00;1.00;1.00
71794;PMS7003;59641;45.188;5.712;2023-04-10T13:15:42;0.00;0.00;0.00
71794;PMS7003;59641;45.188;5.712;2023-04-10T13:18:08;3.00;1.75;1.00
71794;PMS7003;59641;45.188;5.712;2023-04-10T13:20:37;1.00;0.80;0.00
71794;PMS7003;59641;45.188;5.712;2023-04-10T13:23:04;2.00;2.00;2.00
71794;PMS7003;59641;45.188;5.712;2023-04-10T13:25:31;3.00;3.00;2.00
71794;PMS7003;59641;45.188;5.712;2023-04-10T13:27:58;0.00;0.00;0.00
71794;PMS7003;59641;45.188;5.712;2023-04-10T13:30:25;2.40;2.00;2.00
71794;PMS7003;59641;45.188;5.712;2023-04-10T13:32:52;0.00;0.00;0.00
71794;PMS7003;59641;45.188;5.712;2023-04-10T13:35:17;0.25;0.25;0.00
71794;PMS7003;59641;45.188;5.712;2023-04-10T13:37:43;1.00;1.00;1.00
71794;PMS7003;59641;45.188;5.712;2023-04-10T13:40:09;1.00;1.00;0.40
71794;PMS7003;59641;45.188;5.712;2023-04-10T13:42:35;1.00;1.00;0.75
71794;PMS7003;59641;45.188;5.712;2023-04-10T13:45:00;1.00;1.00;1.00
71794;PMS7003;59641;45.188;5.712;2023-04-10T13:47:26;1.00;1.00;0.00
71794;PMS7003;59641;45.188;5.712;2023-04-10T13:49:51;1.50;1.50;1.50
71794;PMS7003;59641;45.188;5.712;2023-04-10T13:52:17;1.25;1.00;1.00
71794;PMS7003;59641;45.188;5.712;2023-04-10T13:54:42;1.75;1.75;1.00
71794;PMS7003;59641;45.188;5.712;2023-04-10T13:57:07;1.00;1.00;1.00
71794;PMS7003;59641;45.188;5.712;2023-04-10T13:59:32;1.00;1.00;1.00
71794;PMS7003;59641;45.188;5.712;2023-04-10T14:01:58;0.50;0.50;0.00
71794;PMS7003;59641;45.188;5.712;2023-04-10T14:04:23;1.25;1.00;1.00
71794;PMS7003;59641;45.188;5.712;2023-04-10T14:06:49;1.00;1.00;0.00
71794;PMS7003;59641;45.188;5.712;2023-04-10T14:09:15;0.60;0.00;0.00
71794;PMS7003;59641;45.188;5.712;2023-04-10T14:11:41;2.50;0.00;0.00
71794;PMS7003;59641;45.188;5.712;2023-04-10T14:14:06;2.25;2.25;1.50
71794;PMS7003;59641;45.188;5.712;2023-04-10T14:16:32;1.00;1.00;0.75
71794;PMS7003;59641;45.188;5.712;2023-04-10T14:18:57;2.00;2.00;2.00
71794;PMS7003;59641;45.188;5.712;2023-04-10T14:21:22;2.00;2.00;1.25
71794;PMS7003;59641;45.188;5.712;2023-04-10T14:23:48;2.75;2.75;2.00
71794;PMS7003;59641;45.188;5.712;2023-04-10T14:26:13;2.75;2.75;2.00
71794;PMS7003;59641;45.188;5.712;2023-04-10T14:28:38;2.00;2.00;1.00
71794;PMS7003;59641;45.188;5.712;2023-04-10T14:31:04;1.25;1.25;0.75
71794;PMS7003;59641;45.188;5.712;2023-04-10T14:33:30;1.20;1.20;1.00
71794;PMS7003;59641;45.188;5.712;2023-04-10T14:35:55;2.75;2.75;1.75
71794;PMS7003;59641;45.188;5.712;2023-04-10T14:38:21;1.00;1.00;1.00
71794;PMS7003;59641;45.188;5.712;2023-04-10T14:40:46;3.00;3.00;2.00
71794;PMS7003;59641;45.188;5.712;2023-04-10T14:43:13;3.40;2.00;1.80
71794;PMS7003;59641;45.188;5.712;2023-04-10T14:45:39;3.75;2.75;1.75
71794;PMS7003;59641;45.188;5.712;2023-04-10T14:48:04;0.00;0.00;0.00
71794;PMS7003;59641;45.188;5.712;2023-04-10T14:50:30;1.25;1.25;1.25
71794;PMS7003;59641;45.188;5.712;2023-04-10T14:52:56;1.00;1.00;0.80
71794;PMS7003;59641;45.188;5.712;2023-04-10T14:55:24;1.20;0.80;0.60
71794;PMS7003;59641;45.188;5.712;2023-04-10T14:57:49;1.50;1.50;1.00
71794;PMS7003;59641;45.188;5.712;2023-04-10T15:00:15;1.00;1.00;1.00
71794;PMS7003;59641;45.188;5.712;2023-04-10T15:02:40;2.00;2.00;1.50
71794;PMS7003;59641;45.188;5.712;2023-04-10T15:05:06;2.00;2.00;2.00
71794;PMS7003;59641;45.188;5.712;2023-04-10T15:07:31;1.00;1.00;0.75
71794;PMS7003;59641;45.188;5.712;2023-04-10T15:09:56;2.75;2.25;1.25
71794;PMS7003;59641;45.188;5.712;2023-04-10T15:12:22;0.00;0.00;0.00